createdAt,value
2018-04-14T00:00:17.555Z,101184.42
2018-04-14T00:01:21.662Z,101182.65
2018-04-14T00:02:28.296Z,101192.02
2018-04-14T00:03:33.417Z,101188.03
2018-04-14T00:04:38.321Z,101190.25
2018-04-14T00:05:43.181Z,101191.98
2018-04-14T00:06:49.761Z,101193.80
2018-04-14T00:07:56.515Z,101188.88
2018-04-14T00:09:01.155Z,101183.56
2018-04-14T00:10:05.366Z,101188.00
2018-04-14T00:11:11.203Z,101192.41
2018-04-14T00:12:21.761Z,101190.19
2018-04-14T00:13:29.957Z,101187.60
2018-04-14T00:14:35.019Z,101192.44
2018-04-14T00:15:39.736Z,101192.87
2018-04-14T00:16:44.510Z,101193.75
2018-04-14T00:17:49.487Z,101183.56
2018-04-14T00:18:53.953Z,101183.55
2018-04-14T00:19:58.931Z,101185.74
2018-04-14T00:21:04.331Z,101186.22
2018-04-14T00:22:09.875Z,101185.30
2018-04-14T00:23:14.123Z,101194.59
2018-04-14T00:24:20.960Z,101192.80
2018-04-14T00:25:26.189Z,101195.45
2018-04-14T00:26:30.965Z,101185.72
2018-04-14T00:27:36.262Z,101188.41
2018-04-14T00:28:41.443Z,101185.72
2018-04-14T00:29:46.054Z,101190.58
2018-04-14T00:30:50.529Z,101189.23
2018-04-14T00:31:55.049Z,101189.66
2018-04-14T00:32:59.742Z,101181.30
2018-04-14T00:34:05.060Z,101183.55
2018-04-14T00:35:09.728Z,101188.00
2018-04-14T00:36:13.910Z,101186.22
2018-04-14T00:37:20.440Z,101191.54
2018-04-14T00:38:24.602Z,101180.88
2018-04-14T00:39:29.313Z,101180.41
2018-04-14T00:40:34.756Z,101188.88
2018-04-14T00:41:38.860Z,101191.98
2018-04-14T00:42:44.258Z,101198.17
2018-04-14T00:43:49.209Z,101190.61
2018-04-14T00:44:54.474Z,101191.52
2018-04-14T00:45:59.201Z,101191.58
2018-04-14T00:47:04.443Z,101193.34
2018-04-14T00:48:08.540Z,101193.34
2018-04-14T00:49:13.137Z,101198.25
2018-04-14T00:50:18.758Z,101193.81
2018-04-14T00:51:23.486Z,101196.00
2018-04-14T00:52:27.616Z,101196.96
2018-04-14T00:53:50.773Z,101202.33
2018-04-14T00:54:55.796Z,101196.55
2018-04-14T00:56:01.875Z,101197.44
2018-04-14T00:57:15.804Z,101202.77
2018-04-14T00:58:20.308Z,101206.33
2018-04-14T00:59:24.587Z,101202.34
2018-04-14T01:00:28.969Z,101212.14
2018-04-14T01:01:34.280Z,101213.48
2018-04-14T01:02:38.734Z,101208.20
2018-04-14T01:03:44.997Z,101215.27
2018-04-14T01:04:50.613Z,101216.59
2018-04-14T01:05:54.852Z,101211.23
2018-04-14T01:06:58.966Z,101209.89
2018-04-14T01:08:12.063Z,101211.66
2018-04-14T01:09:16.931Z,101213.41
2018-04-14T01:10:21.162Z,101219.66
2018-04-14T01:11:25.892Z,101214.34
2018-04-14T01:12:30.528Z,101217.91
2018-04-14T01:13:34.722Z,101207.72
2018-04-14T01:14:49.930Z,101215.69
2018-04-14T01:15:57.519Z,101216.62
2018-04-14T01:17:01.640Z,101210.88
2018-04-14T01:18:05.841Z,101214.45
2018-04-14T01:19:12.206Z,101211.35
2018-04-14T01:20:16.864Z,101202.91
2018-04-14T01:21:21.521Z,101212.66
2018-04-14T01:22:25.713Z,101210.06
2018-04-14T01:23:30.776Z,101218.03
2018-04-14T01:24:36.234Z,101212.77
2018-04-14T01:25:41.937Z,101212.79
2018-04-14T01:26:46.579Z,101209.22
2018-04-14T01:27:51.080Z,101210.55
2018-04-14T01:28:55.255Z,101212.33
2018-04-14T01:29:59.855Z,101207.88
2018-04-14T01:31:04.477Z,101206.08
2018-04-14T01:32:13.017Z,101204.33
2018-04-14T01:33:17.415Z,101215.42
2018-04-14T01:34:21.905Z,101217.19
2018-04-14T01:35:26.725Z,101219.85
2018-04-14T01:36:31.829Z,101217.67
2018-04-14T01:37:36.521Z,101209.23
2018-04-14T01:38:42.719Z,101215.89
2018-04-14T01:39:46.974Z,101219.02
2018-04-14T01:40:51.223Z,101218.59
2018-04-14T01:41:56.803Z,101213.30
2018-04-14T01:43:01.021Z,101209.79
2018-04-14T01:44:17.669Z,101215.95
2018-04-14T01:45:22.573Z,101206.67
2018-04-14T01:46:27.406Z,101209.75
2018-04-14T01:47:31.752Z,101219.02
2018-04-14T01:48:36.053Z,101219.93
2018-04-14T01:49:40.223Z,101218.65
2018-04-14T01:50:44.389Z,101221.76
2018-04-14T01:51:49.753Z,101216.89
2018-04-14T01:52:53.954Z,101216.91
2018-04-14T01:54:00.644Z,101217.35
2018-04-14T01:55:06.061Z,101220.08
2018-04-14T01:56:12.111Z,101216.13
2018-04-14T01:57:16.322Z,101221.89
2018-04-14T01:58:20.855Z,101218.34
2018-04-14T01:59:25.343Z,101219.27
2018-04-14T02:00:29.843Z,101217.92
2018-04-14T02:01:34.065Z,101218.77
2018-04-14T02:02:38.571Z,101219.23
2018-04-14T02:03:44.325Z,101225.89
2018-04-14T02:04:48.459Z,101221.45
2018-04-14T02:05:52.639Z,101225.92
2018-04-14T02:08:20.497Z,101220.63
2018-04-14T02:09:24.988Z,101225.48
2018-04-14T02:10:29.117Z,101227.25
2018-04-14T02:11:33.312Z,101230.34
2018-04-14T02:12:38.939Z,101232.97
2018-04-14T02:13:43.719Z,101223.20
2018-04-14T02:14:48.219Z,101217.00
2018-04-14T02:15:53.879Z,101232.09
2018-04-14T02:17:00.486Z,101228.61
2018-04-14T02:18:05.520Z,101226.39
2018-04-14T02:19:10.527Z,101233.00
2018-04-14T02:20:16.709Z,101228.11
2018-04-14T02:21:21.479Z,101229.88
2018-04-14T02:22:29.296Z,101224.60
2018-04-14T02:23:34.689Z,101233.91
2018-04-14T02:24:39.823Z,101237.91
2018-04-14T02:25:44.037Z,101235.28
2018-04-14T02:26:49.228Z,101237.48
2018-04-14T02:27:53.599Z,101237.00
2018-04-14T02:28:58.649Z,101238.34
2018-04-14T02:30:06.017Z,101238.80
2018-04-14T02:31:11.540Z,101242.77
2018-04-14T02:32:18.257Z,101240.56
2018-04-14T02:33:23.071Z,101237.43
2018-04-14T02:34:27.557Z,101240.97
2018-04-14T02:35:32.852Z,101241.81
2018-04-14T02:36:38.165Z,101242.29
2018-04-14T02:37:49.544Z,101239.20
2018-04-14T02:39:10.135Z,101241.88
2018-04-14T02:40:19.841Z,101246.77
2018-04-14T02:41:24.314Z,101244.50
2018-04-14T02:42:34.670Z,101244.49
2018-04-14T02:43:40.329Z,101247.58
2018-04-14T02:44:46.598Z,101248.91
2018-04-14T02:45:51.031Z,101249.32
2018-04-14T02:46:59.763Z,101247.52
2018-04-14T02:48:06.516Z,101242.66
2018-04-14T02:49:11.382Z,101247.49
2018-04-14T02:50:16.408Z,101253.72
2018-04-14T02:51:21.465Z,101251.93
2018-04-14T02:52:27.015Z,101249.34
2018-04-14T02:53:31.260Z,101249.38
2018-04-14T02:54:36.303Z,101246.28
2018-04-14T02:55:40.795Z,101254.25
2018-04-14T02:56:44.961Z,101255.16
2018-04-14T02:57:49.078Z,101255.13
2018-04-14T02:58:53.199Z,101259.52
2018-04-14T02:59:58.033Z,101259.95
2018-04-14T03:01:03.751Z,101253.31
2018-04-14T03:02:08.883Z,101260.41
2018-04-14T03:03:14.086Z,101270.59
2018-04-14T03:04:18.635Z,101262.64
2018-04-14T03:05:23.371Z,101260.89
2018-04-14T03:06:28.175Z,101266.23
2018-04-14T03:07:33.301Z,101264.44
2018-04-14T03:08:37.416Z,101270.63
2018-04-14T03:09:41.547Z,101271.96
2018-04-14T03:10:45.767Z,101270.19
2018-04-14T03:11:51.009Z,101269.73
2018-04-14T03:12:56.651Z,101271.50
2018-04-14T03:14:02.254Z,101275.48
2018-04-14T03:15:07.773Z,101275.09
2018-04-14T03:16:13.113Z,101277.75
2018-04-14T03:17:20.455Z,101281.30
2018-04-14T03:18:24.597Z,101272.87
2018-04-14T03:19:29.009Z,101278.59
2018-04-14T03:20:33.176Z,101281.30
2018-04-14T03:21:38.775Z,101285.27
2018-04-14T03:22:43.638Z,101283.05
2018-04-14T03:23:48.556Z,101290.56
2018-04-14T03:24:53.308Z,101285.76
2018-04-14T03:25:58.576Z,101294.61
2018-04-14T03:27:04.044Z,101294.16
2018-04-14T03:28:09.113Z,101292.80
2018-04-14T03:29:13.327Z,101288.78
2018-04-14T03:30:17.777Z,101297.22
2018-04-14T03:31:22.489Z,101295.88
2018-04-14T03:32:26.627Z,101302.09
2018-04-14T03:33:31.546Z,101301.19
2018-04-14T03:34:35.757Z,101304.27
2018-04-14T03:35:39.883Z,101299.41
2018-04-14T03:36:46.463Z,101304.25
2018-04-14T03:37:50.941Z,101301.16
2018-04-14T03:38:56.313Z,101303.41
2018-04-14T03:40:04.698Z,101299.02
2018-04-14T03:41:10.305Z,101297.27
2018-04-14T03:42:14.500Z,101312.34
2018-04-14T03:43:19.524Z,101303.93
2018-04-14T03:44:23.624Z,101309.69
2018-04-14T03:45:28.129Z,101307.05
2018-04-14T03:46:32.214Z,101306.16
2018-04-14T03:47:36.982Z,101301.20
2018-04-14T03:48:41.718Z,101301.70
2018-04-14T03:49:45.981Z,101308.83
2018-04-14T03:50:50.435Z,101308.88
2018-04-14T03:51:55.569Z,101316.83
2018-04-14T03:53:01.574Z,101310.59
2018-04-14T03:54:10.158Z,101313.65
2018-04-14T03:55:14.879Z,101317.17
2018-04-14T03:56:19.669Z,101317.18
2018-04-14T03:57:25.059Z,101318.05
2018-04-14T03:58:29.361Z,101314.05
2018-04-14T03:59:33.879Z,101316.23
2018-04-14T04:00:38.875Z,101316.69
2018-04-14T04:01:43.675Z,101316.23
2018-04-14T04:02:48.485Z,101317.58
2018-04-14T04:03:53.949Z,101318.05
2018-04-14T04:04:58.571Z,101317.21
2018-04-14T04:06:03.350Z,101319.88
2018-04-14T04:07:08.985Z,101322.97
2018-04-14T04:08:13.663Z,101320.77
2018-04-14T04:09:18.164Z,101318.98
2018-04-14T04:10:24.132Z,101313.16
2018-04-14T04:11:28.266Z,101315.37
2018-04-14T04:12:33.637Z,101314.91
2018-04-14T04:13:38.804Z,101311.42
2018-04-14T04:14:43.322Z,101320.73
2018-04-14T04:15:47.674Z,101320.73
2018-04-14T04:16:55.239Z,101319.44
2018-04-14T04:18:00.177Z,101319.46
2018-04-14T04:19:17.003Z,101320.78
2018-04-14T04:20:24.938Z,101318.98
2018-04-14T04:22:38.917Z,101320.79
2018-04-14T04:24:51.563Z,101323.50
2018-04-14T04:25:57.708Z,101324.38
2018-04-14T04:27:01.903Z,101325.72
2018-04-14T04:28:06.391Z,101321.73
2018-04-14T04:29:11.422Z,101326.16
2018-04-14T04:30:17.464Z,101326.56
2018-04-14T04:31:23.184Z,101328.81
2018-04-14T04:32:27.976Z,101323.05
2018-04-14T04:33:32.443Z,101331.03
2018-04-14T04:34:36.861Z,101328.34
2018-04-14T04:35:41.058Z,101329.27
2018-04-14T04:36:46.236Z,101329.27
2018-04-14T04:37:51.190Z,101334.14
2018-04-14T04:38:56.286Z,101335.47
2018-04-14T04:40:00.727Z,101334.98
2018-04-14T04:41:11.713Z,101337.22
2018-04-14T04:42:16.978Z,101336.35
2018-04-14T04:43:21.623Z,101339.88
2018-04-14T04:44:25.757Z,101338.98
2018-04-14T04:45:31.559Z,101346.52
2018-04-14T04:46:35.878Z,101345.59
2018-04-14T04:47:41.323Z,101343.86
2018-04-14T04:48:45.921Z,101346.97
2018-04-14T04:49:50.912Z,101353.59
2018-04-14T04:50:56.932Z,101350.09
2018-04-14T04:52:01.555Z,101350.96
2018-04-14T04:53:06.207Z,101351.42
2018-04-14T04:54:10.945Z,101349.23
2018-04-14T04:55:16.521Z,101351.42
2018-04-14T04:56:21.933Z,101355.38
2018-04-14T04:57:26.545Z,101353.13
2018-04-14T04:58:31.724Z,101358.91
2018-04-14T04:59:37.239Z,101362.02
2018-04-14T05:00:41.665Z,101358.91
2018-04-14T05:01:45.859Z,101365.54
2018-04-14T05:02:50.921Z,101361.58
2018-04-14T05:03:55.263Z,101358.45
2018-04-14T05:05:00.234Z,101365.14
2018-04-14T05:06:05.190Z,101367.80
2018-04-14T05:07:09.511Z,101363.37
2018-04-14T05:08:13.597Z,101363.77
2018-04-14T05:09:18.745Z,101371.31
2018-04-14T05:10:23.496Z,101372.19
2018-04-14T05:11:29.184Z,101375.23
2018-04-14T05:12:33.411Z,101381.86
2018-04-14T05:13:38.885Z,101377.89
2018-04-14T05:14:43.569Z,101377.02
2018-04-14T05:15:47.915Z,101376.58
2018-04-14T05:16:52.371Z,101377.03
2018-04-14T05:17:57.156Z,101381.48
2018-04-14T05:19:01.389Z,101379.73
2018-04-14T05:20:06.771Z,101385.06
2018-04-14T05:21:11.800Z,101385.52
2018-04-14T05:22:17.097Z,101385.50
2018-04-14T05:23:22.251Z,101387.24
2018-04-14T05:24:26.541Z,101389.91
2018-04-14T05:25:31.568Z,101398.75
2018-04-14T05:26:36.337Z,101393.91
2018-04-14T05:27:41.334Z,101397.84
2018-04-14T05:28:47.189Z,101394.30
2018-04-14T05:29:53.667Z,101391.66
2018-04-14T05:30:58.281Z,101401.00
2018-04-14T05:32:02.782Z,101394.37
2018-04-14T05:33:14.838Z,101393.02
2018-04-14T05:34:20.463Z,101401.87
2018-04-14T05:35:25.585Z,101405.44
2018-04-14T05:36:30.713Z,101403.66
2018-04-14T05:37:35.012Z,101406.77
2018-04-14T05:38:40.510Z,101405.42
2018-04-14T05:39:44.718Z,101402.77
2018-04-14T05:40:50.102Z,101408.09
2018-04-14T05:41:54.419Z,101409.83
2018-04-14T05:42:59.180Z,101412.03
2018-04-14T05:44:03.402Z,101409.41
2018-04-14T05:45:08.406Z,101415.61
2018-04-14T05:46:18.565Z,101411.62
2018-04-14T05:47:23.353Z,101414.30
2018-04-14T05:48:28.730Z,101406.31
2018-04-14T05:49:33.349Z,101410.73
2018-04-14T05:50:38.487Z,101420.49
2018-04-14T05:51:43.257Z,101416.06
2018-04-14T05:52:47.719Z,101416.06
2018-04-14T05:53:53.396Z,101418.73
2018-04-14T05:54:57.758Z,101414.72
2018-04-14T05:56:01.930Z,101418.25
2018-04-14T05:57:06.562Z,101423.55
2018-04-14T05:58:11.234Z,101419.13
2018-04-14T05:59:16.502Z,101425.34
2018-04-14T06:00:29.644Z,101426.22
2018-04-14T06:01:34.394Z,101420.88
2018-04-14T06:02:40.078Z,101427.06
2018-04-14T06:03:44.523Z,101428.84
2018-04-14T06:04:48.673Z,101430.17
2018-04-14T06:05:53.961Z,101428.38
2018-04-14T06:06:58.322Z,101431.50
2018-04-14T06:08:02.529Z,101433.27
2018-04-14T06:09:10.159Z,101429.74
2018-04-14T06:10:17.780Z,101432.39
2018-04-14T06:11:21.926Z,101433.72
2018-04-14T06:12:26.492Z,101434.13
2018-04-14T06:13:30.734Z,101433.23
2018-04-14T06:14:35.455Z,101430.55
2018-04-14T06:15:41.092Z,101433.21
2018-04-14T06:16:46.168Z,101431.45
2018-04-14T06:17:50.545Z,101434.10
2018-04-14T06:18:55.942Z,101434.98
2018-04-14T06:20:00.078Z,101437.69
2018-04-14T06:21:06.085Z,101432.80
2018-04-14T06:22:12.041Z,101435.47
2018-04-14T06:23:16.813Z,101438.56
2018-04-14T06:24:21.522Z,101438.56
2018-04-14T06:25:26.746Z,101437.67
2018-04-14T06:26:32.358Z,101438.58
2018-04-14T06:27:36.474Z,101448.34
2018-04-14T06:28:40.686Z,101444.33
2018-04-14T06:29:45.888Z,101446.11
2018-04-14T06:30:53.247Z,101443.01
2018-04-14T06:31:58.797Z,101446.13
2018-04-14T06:33:03.579Z,101449.23
2018-04-14T06:34:10.807Z,101448.79
2018-04-14T06:35:16.490Z,101446.62
2018-04-14T06:36:27.848Z,101451.52
2018-04-14T06:37:32.473Z,101448.40
2018-04-14T06:38:38.215Z,101455.48
2018-04-14T06:39:43.130Z,101457.69
2018-04-14T06:40:48.687Z,101459.88
2018-04-14T06:41:54.458Z,101454.99
2018-04-14T06:42:58.602Z,101458.50
2018-04-14T06:44:03.132Z,101457.20
2018-04-14T06:45:07.866Z,101459.84
2018-04-14T06:46:13.621Z,101463.42
2018-04-14T06:47:19.273Z,101461.67
2018-04-14T06:48:29.168Z,101459.02
2018-04-14T06:49:33.973Z,101459.48
2018-04-14T06:50:39.234Z,101460.37
2018-04-14T06:51:45.451Z,101466.12
2018-04-14T06:52:53.475Z,101467.02
2018-04-14T06:54:14.873Z,101466.11
2018-04-14T06:55:24.350Z,101463.87
2018-04-14T06:56:29.971Z,101467.45
2018-04-14T06:57:37.015Z,101468.28
2018-04-14T06:58:44.060Z,101471.37
2018-04-14T06:59:50.184Z,101468.27
2018-04-14T07:00:54.681Z,101470.05
2018-04-14T07:01:59.701Z,101470.00
2018-04-14T07:03:04.406Z,101473.53
2018-04-14T07:04:09.394Z,101473.09
2018-04-14T07:05:16.382Z,101470.86
2018-04-14T07:06:21.212Z,101479.75
2018-04-14T07:07:28.373Z,101472.66
2018-04-14T07:08:33.347Z,101483.31
2018-04-14T07:09:38.016Z,101475.73
2018-04-14T07:10:43.909Z,101474.84
2018-04-14T07:11:48.826Z,101475.27
2018-04-14T07:12:53.613Z,101478.34
2018-04-14T07:13:59.512Z,101478.82
2018-04-14T07:15:05.523Z,101480.17
2018-04-14T07:16:10.981Z,101474.83
2018-04-14T07:17:15.460Z,101483.23
2018-04-14T07:18:20.861Z,101481.42
2018-04-14T07:19:33.897Z,101489.42
2018-04-14T07:20:50.186Z,101482.75
2018-04-14T07:21:55.682Z,101485.88
2018-04-14T07:23:01.761Z,101485.47
2018-04-14T07:24:08.740Z,101486.81
2018-04-14T07:25:14.599Z,101493.88
2018-04-14T07:26:20.156Z,101486.33
2018-04-14T07:27:26.030Z,101490.36
2018-04-14T07:28:34.319Z,101488.54
2018-04-14T07:30:57.443Z,101492.05
2018-04-14T07:32:02.238Z,101492.03
2018-04-14T07:33:11.465Z,101501.78
2018-04-14T07:34:16.790Z,101493.83
2018-04-14T07:35:22.035Z,101498.67
2018-04-14T07:36:26.597Z,101499.50
2018-04-14T07:37:30.863Z,101501.27
2018-04-14T07:38:35.369Z,101503.02
2018-04-14T07:39:40.291Z,101509.28
2018-04-14T07:40:44.605Z,101506.64
2018-04-14T07:41:49.005Z,101500.86
2018-04-14T07:42:53.111Z,101504.34
2018-04-14T07:43:57.309Z,101511.89
2018-04-14T07:45:03.545Z,101500.35
2018-04-14T07:46:07.767Z,101504.73
2018-04-14T07:47:11.954Z,101514.03
2018-04-14T07:48:16.371Z,101506.53
2018-04-14T07:49:21.381Z,101500.80
2018-04-14T07:50:27.859Z,101506.60
2018-04-14T07:51:32.287Z,101510.15
2018-04-14T07:52:36.455Z,101512.38
2018-04-14T07:53:40.869Z,101513.21
2018-04-14T07:54:45.041Z,101516.33
2018-04-14T07:55:49.133Z,101513.20
2018-04-14T07:56:53.220Z,101515.91
2018-04-14T07:57:57.490Z,101517.69
2018-04-14T07:59:01.789Z,101520.32
2018-04-14T08:00:08.261Z,101531.84
2018-04-14T08:01:12.776Z,101514.60
2018-04-14T08:02:17.204Z,101523.06
2018-04-14T08:03:21.397Z,101521.29
2018-04-14T08:04:25.520Z,101519.91
2018-04-14T08:05:29.953Z,101526.10
2018-04-14T08:06:34.241Z,101527.42
2018-04-14T08:07:38.357Z,101521.21
2018-04-14T08:08:42.536Z,101530.48
2018-04-14T08:09:46.643Z,101520.24
2018-04-14T08:10:50.876Z,101524.78
2018-04-14T08:11:56.393Z,101530.98
2018-04-14T08:13:00.640Z,101537.21
2018-04-14T08:14:04.770Z,101526.56
2018-04-14T08:15:09.411Z,101532.30
2018-04-14T08:16:13.794Z,101533.20
2018-04-14T08:17:18.488Z,101535.88
2018-04-14T08:18:22.979Z,101538.97
2018-04-14T08:19:27.136Z,101545.19
2018-04-14T08:20:31.282Z,101536.33
2018-04-14T08:21:35.402Z,101543.41
2018-04-14T08:22:39.767Z,101543.83
2018-04-14T08:23:43.909Z,101541.62
2018-04-14T08:24:48.389Z,101537.19
2018-04-14T08:25:52.527Z,101544.28
2018-04-14T08:26:56.752Z,101546.97
2018-04-14T08:28:00.906Z,101547.44
2018-04-14T08:29:05.042Z,101543.05
2018-04-14T08:30:10.251Z,101546.99
2018-04-14T08:31:14.759Z,101550.08
2018-04-14T08:32:18.865Z,101551.84
2018-04-14T08:33:23.009Z,101550.50
2018-04-14T08:34:27.193Z,101555.81
2018-04-14T08:35:31.328Z,101552.20
2018-04-14T08:36:35.583Z,101553.91
2018-04-14T08:37:39.778Z,101549.00
2018-04-14T08:38:43.895Z,101549.94
2018-04-14T08:39:48.149Z,101554.86
2018-04-14T08:40:52.381Z,101552.24
2018-04-14T08:41:56.912Z,101558.00
2018-04-14T08:43:01.155Z,101552.23
2018-04-14T08:44:05.782Z,101548.71
2018-04-14T08:45:14.131Z,101549.17
2018-04-14T08:46:19.345Z,101556.71
2018-04-14T08:47:23.745Z,101559.77
2018-04-14T08:48:28.209Z,101557.56
2018-04-14T08:49:32.322Z,101560.65
2018-04-14T08:50:36.544Z,101556.22
2018-04-14T08:51:40.776Z,101562.06
2018-04-14T08:52:44.961Z,101556.66
2018-04-14T08:53:49.127Z,101572.17
2018-04-14T08:54:53.241Z,101563.34
2018-04-14T08:55:57.430Z,101565.14
2018-04-14T08:57:01.704Z,101566.87
2018-04-14T08:58:05.856Z,101566.41
2018-04-14T08:59:09.959Z,101568.17
2018-04-14T09:00:16.967Z,101561.95
2018-04-14T09:01:21.655Z,101563.67
2018-04-14T09:02:25.894Z,101564.92
2018-04-14T09:03:30.058Z,101561.38
2018-04-14T09:04:34.175Z,101570.69
2018-04-14T09:05:38.354Z,101570.27
2018-04-14T09:06:42.573Z,101561.39
2018-04-14T09:07:46.688Z,101571.12
2018-04-14T09:08:50.809Z,101574.66
2018-04-14T09:09:55.042Z,101573.31
2018-04-14T09:10:59.181Z,101575.48
2018-04-14T09:12:03.439Z,101568.86
2018-04-14T09:13:07.966Z,101578.56
2018-04-14T09:14:12.132Z,101576.86
2018-04-14T09:15:17.557Z,101579.98
2018-04-14T09:16:21.724Z,101579.92
2018-04-14T09:17:25.871Z,101578.17
2018-04-14T09:18:30.034Z,101579.98
2018-04-14T09:19:34.605Z,101583.09
2018-04-14T09:20:38.796Z,101583.99
2018-04-14T09:21:42.923Z,101578.20
2018-04-14T09:22:47.172Z,101586.59
2018-04-14T09:23:51.325Z,101583.92
2018-04-14T09:24:55.427Z,101593.23
2018-04-14T09:25:59.539Z,101583.91
2018-04-14T09:27:03.806Z,101581.29
2018-04-14T09:28:07.934Z,101590.16
2018-04-14T09:29:12.329Z,101589.74
2018-04-14T09:30:16.980Z,101587.05
2018-04-14T09:31:21.632Z,101585.70
2018-04-14T09:32:26.404Z,101584.74
2018-04-14T09:33:30.537Z,101590.02
2018-04-14T09:34:34.751Z,101586.02
2018-04-14T09:35:39.004Z,101596.72
2018-04-14T09:36:43.174Z,101595.41
2018-04-14T09:37:47.312Z,101597.14
2018-04-14T09:38:51.751Z,101594.05
2018-04-14T09:39:55.948Z,101596.71
2018-04-14T09:41:00.082Z,101597.14
2018-04-14T09:42:04.288Z,101609.58
2018-04-14T09:43:08.434Z,101598.09
2018-04-14T09:44:12.721Z,101594.09
2018-04-14T09:45:18.370Z,101595.44
2018-04-14T09:46:23.167Z,101606.08
2018-04-14T09:47:27.378Z,101601.63
2018-04-14T09:48:31.569Z,101602.98
2018-04-14T09:49:35.813Z,101604.75
2018-04-14T09:50:39.982Z,101609.67
2018-04-14T09:51:44.152Z,101607.47
2018-04-14T09:52:48.246Z,101609.69
2018-04-14T09:53:52.510Z,101612.74
2018-04-14T09:54:56.767Z,101617.11
2018-04-14T09:56:00.915Z,101617.55
2018-04-14T09:57:05.170Z,101622.88
2018-04-14T09:58:09.707Z,101609.59
2018-04-14T09:59:13.860Z,101623.45
2018-04-14T10:00:23.047Z,101625.25
2018-04-14T10:01:28.103Z,101627.02
2018-04-14T10:02:32.873Z,101621.26
2018-04-14T10:03:37.159Z,101630.15
2018-04-14T10:04:41.338Z,101618.17
2018-04-14T10:05:45.522Z,101623.94
2018-04-14T10:06:49.679Z,101631.39
2018-04-14T10:07:53.798Z,101630.91
2018-04-14T10:08:57.962Z,101618.53
2018-04-14T10:10:02.458Z,101626.94
2018-04-14T10:11:06.593Z,101626.06
2018-04-14T10:12:10.686Z,101629.98
2018-04-14T10:13:14.810Z,101630.48
2018-04-14T10:14:19.133Z,101629.55
2018-04-14T10:15:23.621Z,101630.34
2018-04-14T10:16:27.773Z,101634.33
2018-04-14T10:17:31.908Z,101635.20
2018-04-14T10:18:36.033Z,101629.44
2018-04-14T10:19:40.213Z,101632.55
2018-04-14T10:20:44.356Z,101638.80
2018-04-14T10:21:48.597Z,101643.67
2018-04-14T10:22:52.776Z,101640.55
2018-04-14T10:23:57.301Z,101644.06
2018-04-14T10:25:01.415Z,101644.51
2018-04-14T10:27:38.317Z,101647.25
2018-04-14T10:28:42.851Z,101649.03
2018-04-14T10:29:47.030Z,101652.14
2018-04-14T10:30:51.676Z,101653.49
2018-04-14T10:31:56.199Z,101659.72
2018-04-14T10:33:00.396Z,101648.64
2018-04-14T10:34:04.717Z,101654.91
2018-04-14T10:35:08.888Z,101653.58
2018-04-14T10:36:13.206Z,101661.17
2018-04-14T10:37:17.480Z,101660.69
2018-04-14T10:38:22.586Z,101654.44
2018-04-14T10:39:26.736Z,101653.52
2018-04-14T10:40:30.931Z,101658.39
2018-04-14T10:41:35.515Z,101671.69
2018-04-14T10:42:39.708Z,101666.00
2018-04-14T10:43:43.853Z,101666.42
2018-04-14T10:44:48.037Z,101669.96
2018-04-14T10:45:52.770Z,101666.84
2018-04-14T10:46:57.185Z,101672.58
2018-04-14T10:48:01.460Z,101670.38
2018-04-14T10:49:05.634Z,101670.36
2018-04-14T10:50:09.948Z,101670.78
2018-04-14T10:51:14.205Z,101669.88
2018-04-14T10:52:18.519Z,101672.09
2018-04-14T10:53:23.581Z,101679.18
2018-04-14T10:54:28.053Z,101671.20
2018-04-14T10:55:32.207Z,101669.84
2018-04-14T10:56:36.526Z,101672.56
2018-04-14T10:57:40.751Z,101675.66
2018-04-14T10:58:44.924Z,101673.00
2018-04-14T10:59:49.250Z,101682.26
2018-04-14T11:00:54.232Z,101679.11
2018-04-14T11:01:58.532Z,101679.48
2018-04-14T11:03:02.758Z,101685.35
2018-04-14T11:04:06.922Z,101681.30
2018-04-14T11:05:11.076Z,101689.62
2018-04-14T11:06:15.342Z,101690.03
2018-04-14T11:07:19.834Z,101693.45
2018-04-14T11:08:24.002Z,101689.90
2018-04-14T11:09:28.172Z,101685.00
2018-04-14T11:10:32.417Z,101684.09
2018-04-14T11:11:36.550Z,101681.32
2018-04-14T11:12:40.703Z,101685.66
2018-04-14T11:13:44.880Z,101688.98
2018-04-14T11:14:49.112Z,101686.98
2018-04-14T11:15:53.350Z,101684.84
2018-04-14T11:16:57.832Z,101688.61
2018-04-14T11:18:02.143Z,101689.16
2018-04-14T11:19:06.477Z,101684.81
2018-04-14T11:20:10.762Z,101687.42
2018-04-14T11:21:15.044Z,101679.55
2018-04-14T11:22:19.248Z,101686.61
2018-04-14T11:23:23.417Z,101687.58
2018-04-14T11:24:27.639Z,101689.38
2018-04-14T11:25:32.228Z,101690.33
2018-04-14T11:26:36.566Z,101688.05
2018-04-14T11:27:40.726Z,101690.70
2018-04-14T11:28:44.880Z,101686.28
2018-04-14T11:29:49.114Z,101688.84
2018-04-14T11:30:53.296Z,101687.88
2018-04-14T11:31:57.713Z,101683.40
2018-04-14T11:33:02.033Z,101694.48
2018-04-14T11:34:06.250Z,101687.87
2018-04-14T11:35:11.007Z,101689.70
2018-04-14T11:36:15.140Z,101690.52
2018-04-14T11:37:19.355Z,101692.78
2018-04-14T11:38:23.694Z,101694.62
2018-04-14T11:39:27.946Z,101699.69
2018-04-14T11:40:32.130Z,101697.46
2018-04-14T11:41:36.437Z,101694.28
2018-04-14T11:42:40.596Z,101695.64
2018-04-14T11:43:44.755Z,101699.20
2018-04-14T11:44:48.929Z,101700.97
2018-04-14T11:45:53.469Z,101703.23
2018-04-14T11:46:57.637Z,101702.25
2018-04-14T11:48:01.862Z,101701.39
2018-04-14T11:49:06.094Z,101705.78
2018-04-14T11:50:10.277Z,101708.83
2018-04-14T11:51:14.913Z,101707.45
2018-04-14T11:52:19.107Z,101707.48
2018-04-14T11:53:23.813Z,101712.41
2018-04-14T11:54:28.159Z,101721.73
2018-04-14T11:55:32.329Z,101708.70
2018-04-14T11:56:36.532Z,101713.42
2018-04-14T11:57:40.813Z,101716.34
2018-04-14T11:58:44.987Z,101709.10
2018-04-14T11:59:49.274Z,101705.48
2018-04-14T12:00:53.870Z,101710.38
2018-04-14T12:01:58.134Z,101714.89
2018-04-14T12:03:02.301Z,101708.22
2018-04-14T12:04:06.657Z,101713.59
2018-04-14T12:05:11.284Z,101723.28
2018-04-14T12:06:15.574Z,101718.32
2018-04-14T12:07:19.763Z,101715.78
2018-04-14T12:08:23.931Z,101720.14
2018-04-14T12:09:29.127Z,101719.25
2018-04-14T12:10:33.316Z,101726.73
2018-04-14T12:11:37.842Z,101721.40
2018-04-14T12:12:42.173Z,101722.21
2018-04-14T12:13:46.386Z,101716.47
2018-04-14T12:14:50.570Z,101718.18
2018-04-14T12:15:54.882Z,101715.86
2018-04-14T12:16:59.029Z,101717.55
2018-04-14T12:18:03.574Z,101719.52
2018-04-14T12:19:07.897Z,101718.88
2018-04-14T12:20:12.116Z,101719.09
2018-04-14T12:21:17.036Z,101714.33
2018-04-14T12:22:21.191Z,101724.68
2018-04-14T12:23:26.009Z,101721.41
2018-04-14T12:24:30.201Z,101727.59
2018-04-14T12:25:34.461Z,101720.36
2018-04-14T12:26:38.685Z,101725.79
2018-04-14T12:27:42.848Z,101726.23
2018-04-14T12:28:47.114Z,101729.82